Cumberland, Illinois
Current Conditions -  °F | °C
As of 11:53 PM on Sunday 25 Jan 2015 (Local Time) from KMTO Reporting Station
Overcast Overcast  
Wind Chill: 15°   Ceiling: 1200
Heat Index: 28°   Visibility: 10mi
Dew Point: 24°   Wind: 21mph
Humidity: 85%   Direction: 360°N
Pressure: 29.92"   Gusts: 24mph
Location:  39.2896°N, 88.2485°W
Report Text: KMTO 260553Z AUTO 36018G21KT 10SM OVC012 M02/M04 A2992 RMK AO2 PK WND 36026/0515 SLP138 60000 T10221044 10006 21022 400441022 51021
Loading
Personal Weather Stations






























Interactive Weather Map New forecast layout! Learn more

10-Day Weather Forecast

Advertisements
Track Severe Weather on mobile